sensor_id;sensor_type;location;lat;lon;timestamp;P1;durP1;ratioP1;P2;durP2;ratioP2
63818;SDS011;49970;54.976;73.248;2023-04-24T00:02:21;36.83;;;14.52;;
63818;SDS011;49970;54.976;73.248;2023-04-24T00:04:49;38.50;;;14.45;;
63818;SDS011;49970;54.976;73.248;2023-04-24T00:07:20;38.72;;;13.77;;
63818;SDS011;49970;54.976;73.248;2023-04-24T00:09:51;32.75;;;15.05;;
63818;SDS011;49970;54.976;73.248;2023-04-24T00:12:17;40.03;;;16.55;;
63818;SDS011;49970;54.976;73.248;2023-04-24T00:14:44;37.67;;;14.82;;
63818;SDS011;49970;54.976;73.248;2023-04-24T00:17:10;22.98;;;13.75;;
63818;SDS011;49970;54.976;73.248;2023-04-24T00:19:36;38.58;;;13.85;;
63818;SDS011;49970;54.976;73.248;2023-04-24T00:22:02;36.30;;;15.15;;
63818;SDS011;49970;54.976;73.248;2023-04-24T00:24:29;25.75;;;13.18;;
63818;SDS011;49970;54.976;73.248;2023-04-24T00:26:55;24.38;;;12.25;;
63818;SDS011;49970;54.976;73.248;2023-04-24T00:29:21;22.25;;;12.00;;
63818;SDS011;49970;54.976;73.248;2023-04-24T00:31:47;25.55;;;12.77;;
63818;SDS011;49970;54.976;73.248;2023-04-24T00:34:14;27.17;;;12.35;;
63818;SDS011;49970;54.976;73.248;2023-04-24T00:36:40;22.10;;;11.52;;
63818;SDS011;49970;54.976;73.248;2023-04-24T00:39:07;24.92;;;12.30;;
63818;SDS011;49970;54.976;73.248;2023-04-24T00:41:36;16.17;;;11.38;;
63818;SDS011;49970;54.976;73.248;2023-04-24T00:44:07;17.75;;;12.50;;
63818;SDS011;49970;54.976;73.248;2023-04-24T00:46:39;24.48;;;12.32;;
63818;SDS011;49970;54.976;73.248;2023-04-24T00:49:06;21.30;;;12.02;;
63818;SDS011;49970;54.976;73.248;2023-04-24T00:51:37;27.48;;;12.95;;
63818;SDS011;49970;54.976;73.248;2023-04-24T00:54:14;25.30;;;12.05;;
63818;SDS011;49970;54.976;73.248;2023-04-24T00:56:45;32.47;;;15.57;;
63818;SDS011;49970;54.976;73.248;2023-04-24T00:59:22;41.05;;;15.00;;
63818;SDS011;49970;54.976;73.248;2023-04-24T01:01:48;23.13;;;13.07;;
63818;SDS011;49970;54.976;73.248;2023-04-24T01:04:20;26.15;;;10.20;;
63818;SDS011;49970;54.976;73.248;2023-04-24T01:06:47;27.17;;;10.70;;
63818;SDS011;49970;54.976;73.248;2023-04-24T01:09:26;22.13;;;9.80;;
63818;SDS011;49970;54.976;73.248;2023-04-24T01:11:52;22.15;;;8.68;;
63818;SDS011;49970;54.976;73.248;2023-04-24T01:14:18;24.75;;;9.15;;
63818;SDS011;49970;54.976;73.248;2023-04-24T01:16:48;15.65;;;8.63;;
63818;SDS011;49970;54.976;73.248;2023-04-24T01:19:14;14.95;;;8.60;;
63818;SDS011;49970;54.976;73.248;2023-04-24T01:21:47;19.55;;;8.30;;
63818;SDS011;49970;54.976;73.248;2023-04-24T01:24:17;13.13;;;8.23;;
63818;SDS011;49970;54.976;73.248;2023-04-24T01:26:55;17.25;;;7.97;;
63818;SDS011;49970;54.976;73.248;2023-04-24T01:29:22;23.33;;;8.13;;
63818;SDS011;49970;54.976;73.248;2023-04-24T01:31:55;15.32;;;8.40;;
63818;SDS011;49970;54.976;73.248;2023-04-24T01:34:22;14.32;;;7.90;;
63818;SDS011;49970;54.976;73.248;2023-04-24T01:36:48;19.90;;;7.15;;
63818;SDS011;49970;54.976;73.248;2023-04-24T01:39:21;13.05;;;8.20;;
63818;SDS011;49970;54.976;73.248;2023-04-24T01:41:49;13.40;;;7.63;;
63818;SDS011;49970;54.976;73.248;2023-04-24T01:44:18;19.52;;;7.38;;
63818;SDS011;49970;54.976;73.248;2023-04-24T01:46:44;18.15;;;6.72;;
63818;SDS011;49970;54.976;73.248;2023-04-24T01:49:11;17.77;;;8.25;;
63818;SDS011;49970;54.976;73.248;2023-04-24T01:51:37;15.02;;;9.30;;
63818;SDS011;49970;54.976;73.248;2023-04-24T01:54:04;19.88;;;12.05;;
63818;SDS011;49970;54.976;73.248;2023-04-24T01:56:32;34.42;;;15.40;;
63818;SDS011;49970;54.976;73.248;2023-04-24T01:59:11;31.40;;;17.70;;
63818;SDS011;49970;54.976;73.248;2023-04-24T02:01:38;38.25;;;17.02;;
63818;SDS011;49970;54.976;73.248;2023-04-24T02:04:15;30.08;;;16.42;;
63818;SDS011;49970;54.976;73.248;2023-04-24T02:06:42;23.98;;;12.90;;
63818;SDS011;49970;54.976;73.248;2023-04-24T02:09:08;21.42;;;10.35;;
63818;SDS011;49970;54.976;73.248;2023-04-24T02:11:36;25.73;;;9.88;;
63818;SDS011;49970;54.976;73.248;2023-04-24T02:14:07;25.05;;;11.57;;
63818;SDS011;49970;54.976;73.248;2023-04-24T02:16:41;24.58;;;13.75;;
63818;SDS011;49970;54.976;73.248;2023-04-24T02:19:07;25.98;;;15.50;;
63818;SDS011;49970;54.976;73.248;2023-04-24T02:21:35;24.98;;;17.77;;
63818;SDS011;49970;54.976;73.248;2023-04-24T02:24:01;32.78;;;16.75;;
63818;SDS011;49970;54.976;73.248;2023-04-24T02:26:34;23.63;;;15.60;;
63818;SDS011;49970;54.976;73.248;2023-04-24T02:29:10;36.28;;;16.63;;
63818;SDS011;49970;54.976;73.248;2023-04-24T02:31:37;30.20;;;16.88;;
63818;SDS011;49970;54.976;73.248;2023-04-24T02:34:03;26.10;;;11.70;;
63818;SDS011;49970;54.976;73.248;2023-04-24T02:36:30;26.40;;;9.68;;
63818;SDS011;49970;54.976;73.248;2023-04-24T02:38:57;24.20;;;8.95;;
63818;SDS011;49970;54.976;73.248;2023-04-24T02:41:23;14.18;;;7.35;;
63818;SDS011;49970;54.976;73.248;2023-04-24T02:43:49;16.20;;;7.10;;
63818;SDS011;49970;54.976;73.248;2023-04-24T02:46:16;18.33;;;6.47;;
63818;SDS011;49970;54.976;73.248;2023-04-24T02:48:42;19.75;;;7.25;;
63818;SDS011;49970;54.976;73.248;2023-04-24T02:51:13;22.15;;;8.23;;
63818;SDS011;49970;54.976;73.248;2023-04-24T02:53:45;26.23;;;7.53;;
63818;SDS011;49970;54.976;73.248;2023-04-24T02:56:11;17.33;;;8.10;;
63818;SDS011;49970;54.976;73.248;2023-04-24T02:58:38;23.88;;;7.95;;
63818;SDS011;49970;54.976;73.248;2023-04-24T03:01:08;20.95;;;7.88;;
63818;SDS011;49970;54.976;73.248;2023-04-24T03:03:36;21.52;;;7.60;;
63818;SDS011;49970;54.976;73.248;2023-04-24T03:07:25;25.48;;;7.82;;
63818;SDS011;49970;54.976;73.248;2023-04-24T03:11:14;29.77;;;9.63;;
63818;SDS011;49970;54.976;73.248;2023-04-24T03:15:15;27.15;;;8.40;;
63818;SDS011;49970;54.976;73.248;2023-04-24T03:19:06;28.40;;;7.55;;
63818;SDS011;49970;54.976;73.248;2023-04-24T03:26:52;33.58;;;9.25;;
63818;SDS011;49970;54.976;73.248;2023-04-24T03:31:32;20.48;;;8.63;;
63818;SDS011;49970;54.976;73.248;2023-04-24T03:35:23;21.70;;;8.93;;
63818;SDS011;49970;54.976;73.248;2023-04-24T03:37:51;28.95;;;9.63;;
63818;SDS011;49970;54.976;73.248;2023-04-24T03:40:47;31.67;;;9.25;;
63818;SDS011;49970;54.976;73.248;2023-04-24T03:43:48;27.30;;;9.30;;
63818;SDS011;49970;54.976;73.248;2023-04-24T03:46:15;33.50;;;8.80;;
63818;SDS011;49970;54.976;73.248;2023-04-24T03:50:06;35.03;;;9.55;;
63818;SDS011;49970;54.976;73.248;2023-04-24T03:54:22;32.85;;;9.73;;
63818;SDS011;49970;54.976;73.248;2023-04-24T03:56:54;29.57;;;10.30;;
63818;SDS011;49970;54.976;73.248;2023-04-24T03:59:30;29.50;;;9.73;;
63818;SDS011;49970;54.976;73.248;2023-04-24T04:02:22;31.45;;;9.68;;
63818;SDS011;49970;54.976;73.248;2023-04-24T04:05:03;32.83;;;9.68;;
63818;SDS011;49970;54.976;73.248;2023-04-24T04:07:43;38.38;;;10.13;;
63818;SDS011;49970;54.976;73.248;2023-04-24T04:10:12;28.20;;;11.00;;
63818;SDS011;49970;54.976;73.248;2023-04-24T04:12:41;39.47;;;10.32;;
63818;SDS011;49970;54.976;73.248;2023-04-24T04:15:12;35.15;;;10.32;;
63818;SDS011;49970;54.976;73.248;2023-04-24T04:17:42;22.77;;;8.98;;
63818;SDS011;49970;54.976;73.248;2023-04-24T04:20:13;26.25;;;9.38;;
63818;SDS011;49970;54.976;73.248;2023-04-24T04:22:44;24.85;;;8.95;;
63818;SDS011;49970;54.976;73.248;2023-04-24T04:25:19;49.05;;;8.75;;
63818;SDS011;49970;54.976;73.248;2023-04-24T04:27:50;23.77;;;8.27;;
63818;SDS011;49970;54.976;73.248;2023-04-24T04:30:22;20.38;;;8.25;;
63818;SDS011;49970;54.976;73.248;2023-04-24T04:32:58;23.05;;;8.52;;
63818;SDS011;49970;54.976;73.248;2023-04-24T04:35:27;20.45;;;7.53;;
63818;SDS011;49970;54.976;73.248;2023-04-24T04:37:57;35.13;;;7.80;;
63818;SDS011;49970;54.976;73.248;2023-04-24T04:40:50;21.40;;;8.27;;
63818;SDS011;49970;54.976;73.248;2023-04-24T04:43:32;25.73;;;7.93;;
63818;SDS011;49970;54.976;73.248;2023-04-24T04:46:07;24.52;;;7.70;;
63818;SDS011;49970;54.976;73.248;2023-04-24T04:49:05;15.50;;;7.00;;
63818;SDS011;49970;54.976;73.248;2023-04-24T04:51:36;17.38;;;6.65;;
63818;SDS011;49970;54.976;73.248;2023-04-24T04:54:07;43.83;;;6.10;;
63818;SDS011;49970;54.976;73.248;2023-04-24T04:56:39;14.73;;;6.57;;
63818;SDS011;49970;54.976;73.248;2023-04-24T04:59:10;13.55;;;5.95;;
63818;SDS011;49970;54.976;73.248;2023-04-24T05:01:50;18.92;;;6.38;;
63818;SDS011;49970;54.976;73.248;2023-04-24T05:04:21;18.98;;;6.57;;
63818;SDS011;49970;54.976;73.248;2023-04-24T05:07:01;12.18;;;5.50;;
63818;SDS011;49970;54.976;73.248;2023-04-24T05:09:34;8.32;;;5.13;;
63818;SDS011;49970;54.976;73.248;2023-04-24T05:12:06;16.50;;;6.15;;
63818;SDS011;49970;54.976;73.248;2023-04-24T05:14:49;13.65;;;5.13;;
63818;SDS011;49970;54.976;73.248;2023-04-24T05:17:28;13.85;;;5.72;;
63818;SDS011;49970;54.976;73.248;2023-04-24T05:19:59;14.23;;;5.65;;
63818;SDS011;49970;54.976;73.248;2023-04-24T05:22:31;11.80;;;5.60;;
63818;SDS011;49970;54.976;73.248;2023-04-24T05:25:00;15.38;;;6.10;;
63818;SDS011;49970;54.976;73.248;2023-04-24T05:27:42;9.02;;;6.07;;
63818;SDS011;49970;54.976;73.248;2023-04-24T05:30:27;22.98;;;6.78;;
63818;SDS011;49970;54.976;73.248;2023-04-24T05:32:58;25.52;;;6.30;;
63818;SDS011;49970;54.976;73.248;2023-04-24T05:35:27;8.70;;;4.78;;
63818;SDS011;49970;54.976;73.248;2023-04-24T05:37:57;13.25;;;4.72;;
63818;SDS011;49970;54.976;73.248;2023-04-24T05:40:38;12.85;;;4.95;;
63818;SDS011;49970;54.976;73.248;2023-04-24T05:43:07;16.70;;;4.32;;
63818;SDS011;49970;54.976;73.248;2023-04-24T05:45:37;9.98;;;4.95;;
63818;SDS011;49970;54.976;73.248;2023-04-24T05:48:07;17.10;;;4.20;;
63818;SDS011;49970;54.976;73.248;2023-04-24T05:50:36;9.70;;;4.63;;
63818;SDS011;49970;54.976;73.248;2023-04-24T05:53:06;12.93;;;4.65;;
63818;SDS011;49970;54.976;73.248;2023-04-24T05:55:36;9.05;;;4.10;;
63818;SDS011;49970;54.976;73.248;2023-04-24T05:58:06;10.73;;;4.57;;
63818;SDS011;49970;54.976;73.248;2023-04-24T06:00:37;8.18;;;3.80;;
63818;SDS011;49970;54.976;73.248;2023-04-24T06:03:14;13.52;;;4.05;;
63818;SDS011;49970;54.976;73.248;2023-04-24T06:05:42;9.88;;;3.35;;
63818;SDS011;49970;54.976;73.248;2023-04-24T06:08:14;16.27;;;3.40;;
63818;SDS011;49970;54.976;73.248;2023-04-24T06:10:51;11.40;;;3.28;;
63818;SDS011;49970;54.976;73.248;2023-04-24T06:13:22;7.82;;;2.90;;
63818;SDS011;49970;54.976;73.248;2023-04-24T06:16:22;4.68;;;2.65;;
63818;SDS011;49970;54.976;73.248;2023-04-24T06:19:05;3.88;;;3.00;;
63818;SDS011;49970;54.976;73.248;2023-04-24T06:21:31;20.27;;;3.17;;
63818;SDS011;49970;54.976;73.248;2023-04-24T06:23:58;3.88;;;3.38;;
63818;SDS011;49970;54.976;73.248;2023-04-24T06:26:33;13.95;;;3.60;;
63818;SDS011;49970;54.976;73.248;2023-04-24T06:28:59;10.98;;;3.55;;
63818;SDS011;49970;54.976;73.248;2023-04-24T06:31:30;7.63;;;2.35;;
63818;SDS011;49970;54.976;73.248;2023-04-24T06:34:00;6.80;;;2.38;;
63818;SDS011;49970;54.976;73.248;2023-04-24T06:36:32;9.13;;;2.10;;
63818;SDS011;49970;54.976;73.248;2023-04-24T06:39:00;6.82;;;1.90;;
63818;SDS011;49970;54.976;73.248;2023-04-24T06:41:26;2.83;;;2.25;;
63818;SDS011;49970;54.976;73.248;2023-04-24T06:43:52;8.90;;;1.83;;
63818;SDS011;49970;54.976;73.248;2023-04-24T06:46:18;9.20;;;2.17;;
63818;SDS011;49970;54.976;73.248;2023-04-24T06:48:52;1.77;;;1.67;;
63818;SDS011;49970;54.976;73.248;2023-04-24T06:51:26;3.28;;;2.00;;
63818;SDS011;49970;54.976;73.248;2023-04-24T06:53:58;4.43;;;2.40;;
63818;SDS011;49970;54.976;73.248;2023-04-24T06:56:35;4.82;;;2.58;;
63818;SDS011;49970;54.976;73.248;2023-04-24T07:04:46;12.80;;;1.92;;
63818;SDS011;49970;54.976;73.248;2023-04-24T07:08:17;17.20;;;2.80;;
63818;SDS011;49970;54.976;73.248;2023-04-24T07:10:43;10.02;;;2.90;;
63818;SDS011;49970;54.976;73.248;2023-04-24T07:13:20;9.50;;;2.33;;
63818;SDS011;49970;54.976;73.248;2023-04-24T07:15:46;6.22;;;1.95;;
63818;SDS011;49970;54.976;73.248;2023-04-24T07:18:16;5.82;;;2.20;;
63818;SDS011;49970;54.976;73.248;2023-04-24T07:20:42;17.52;;;1.65;;
63818;SDS011;49970;54.976;73.248;2023-04-24T07:23:08;12.40;;;2.13;;
63818;SDS011;49970;54.976;73.248;2023-04-24T07:25:35;17.08;;;2.97;;
63818;SDS011;49970;54.976;73.248;2023-04-24T07:28:01;14.55;;;1.75;;
63818;SDS011;49970;54.976;73.248;2023-04-24T07:30:27;13.10;;;2.30;;
63818;SDS011;49970;54.976;73.248;2023-04-24T07:33:08;7.72;;;2.17;;
63818;SDS011;49970;54.976;73.248;2023-04-24T07:35:36;7.72;;;1.98;;
63818;SDS011;49970;54.976;73.248;2023-04-24T07:38:02;7.40;;;2.30;;
63818;SDS011;49970;54.976;73.248;2023-04-24T07:40:29;14.75;;;2.05;;
63818;SDS011;49970;54.976;73.248;2023-04-24T07:42:55;9.95;;;2.75;;
63818;SDS011;49970;54.976;73.248;2023-04-24T07:45:22;4.10;;;2.42;;
63818;SDS011;49970;54.976;73.248;2023-04-24T07:47:54;10.18;;;2.45;;
63818;SDS011;49970;54.976;73.248;2023-04-24T07:50:21;13.32;;;3.13;;
63818;SDS011;49970;54.976;73.248;2023-04-24T07:52:47;6.90;;;2.97;;
63818;SDS011;49970;54.976;73.248;2023-04-24T07:55:14;8.82;;;3.25;;
63818;SDS011;49970;54.976;73.248;2023-04-24T07:57:40;5.80;;;2.65;;
63818;SDS011;49970;54.976;73.248;2023-04-24T08:00:26;22.60;;;11.70;;
63818;SDS011;49970;54.976;73.248;2023-04-24T08:02:52;13.27;;;6.65;;
63818;SDS011;49970;54.976;73.248;2023-04-24T08:05:19;6.53;;;2.25;;
63818;SDS011;49970;54.976;73.248;2023-04-24T08:07:45;2.42;;;2.15;;
63818;SDS011;49970;54.976;73.248;2023-04-24T08:10:14;3.65;;;2.30;;
63818;SDS011;49970;54.976;73.248;2023-04-24T08:12:41;4.95;;;3.28;;
63818;SDS011;49970;54.976;73.248;2023-04-24T08:15:17;6.30;;;4.50;;
63818;SDS011;49970;54.976;73.248;2023-04-24T08:17:43;7.97;;;5.20;;
63818;SDS011;49970;54.976;73.248;2023-04-24T08:20:14;5.07;;;2.85;;
63818;SDS011;49970;54.976;73.248;2023-04-24T08:22:45;11.35;;;2.40;;
63818;SDS011;49970;54.976;73.248;2023-04-24T08:25:12;11.63;;;2.60;;
63818;SDS011;49970;54.976;73.248;2023-04-24T08:27:39;15.10;;;2.42;;
63818;SDS011;49970;54.976;73.248;2023-04-24T08:30:11;3.03;;;2.50;;
63818;SDS011;49970;54.976;73.248;2023-04-24T08:32:37;7.07;;;2.30;;
63818;SDS011;49970;54.976;73.248;2023-04-24T08:35:03;12.07;;;2.60;;
63818;SDS011;49970;54.976;73.248;2023-04-24T08:37:30;7.25;;;2.90;;
63818;SDS011;49970;54.976;73.248;2023-04-24T08:39:56;2.88;;;2.42;;
63818;SDS011;49970;54.976;73.248;2023-04-24T08:42:22;18.40;;;2.58;;
63818;SDS011;49970;54.976;73.248;2023-04-24T08:44:49;12.68;;;2.85;;
63818;SDS011;49970;54.976;73.248;2023-04-24T08:47:16;10.88;;;3.17;;
63818;SDS011;49970;54.976;73.248;2023-04-24T08:49:52;14.55;;;3.05;;
63818;SDS011;49970;54.976;73.248;2023-04-24T08:52:19;8.90;;;3.17;;
63818;SDS011;49970;54.976;73.248;2023-04-24T08:54:52;7.40;;;2.00;;
63818;SDS011;49970;54.976;73.248;2023-04-24T08:57:20;13.48;;;2.55;;
63818;SDS011;49970;54.976;73.248;2023-04-24T08:59:47;22.83;;;2.30;;
63818;SDS011;49970;54.976;73.248;2023-04-24T09:02:24;3.03;;;2.13;;
63818;SDS011;49970;54.976;73.248;2023-04-24T09:04:52;1.67;;;1.50;;
63818;SDS011;49970;54.976;73.248;2023-04-24T09:07:30;11.52;;;2.20;;
63818;SDS011;49970;54.976;73.248;2023-04-24T09:09:59;11.35;;;2.50;;
63818;SDS011;49970;54.976;73.248;2023-04-24T09:12:27;6.30;;;2.03;;
63818;SDS011;49970;54.976;73.248;2023-04-24T09:14:53;17.27;;;1.88;;
63818;SDS011;49970;54.976;73.248;2023-04-24T09:17:20;13.18;;;1.40;;
63818;SDS011;49970;54.976;73.248;2023-04-24T09:19:48;5.05;;;1.67;;
63818;SDS011;49970;54.976;73.248;2023-04-24T09:22:24;12.40;;;1.52;;
63818;SDS011;49970;54.976;73.248;2023-04-24T09:25:12;6.78;;;1.70;;
63818;SDS011;49970;54.976;73.248;2023-04-24T09:27:42;13.48;;;2.30;;
63818;SDS011;49970;54.976;73.248;2023-04-24T09:30:10;6.03;;;1.52;;
63818;SDS011;49970;54.976;73.248;2023-04-24T09:32:37;12.57;;;2.15;;
63818;SDS011;49970;54.976;73.248;2023-04-24T09:35:10;10.68;;;2.15;;
63818;SDS011;49970;54.976;73.248;2023-04-24T09:37:42;9.15;;;2.38;;
63818;SDS011;49970;54.976;73.248;2023-04-24T09:40:15;9.73;;;1.70;;
63818;SDS011;49970;54.976;73.248;2023-04-24T09:42:56;9.55;;;1.52;;
63818;SDS011;49970;54.976;73.248;2023-04-24T09:45:28;7.68;;;1.63;;
63818;SDS011;49970;54.976;73.248;2023-04-24T09:48:09;1.90;;;1.70;;
63818;SDS011;49970;54.976;73.248;2023-04-24T09:50:36;5.13;;;1.58;;
63818;SDS011;49970;54.976;73.248;2023-04-24T09:53:03;16.65;;;1.98;;
63818;SDS011;49970;54.976;73.248;2023-04-24T09:55:44;35.60;;;1.80;;
63818;SDS011;49970;54.976;73.248;2023-04-24T09:58:13;6.17;;;1.40;;
63818;SDS011;49970;54.976;73.248;2023-04-24T10:00:40;1.88;;;1.38;;
63818;SDS011;49970;54.976;73.248;2023-04-24T10:03:06;6.85;;;1.73;;
63818;SDS011;49970;54.976;73.248;2023-04-24T10:05:37;6.03;;;1.30;;
63818;SDS011;49970;54.976;73.248;2023-04-24T10:08:10;12.98;;;1.88;;
63818;SDS011;49970;54.976;73.248;2023-04-24T10:10:41;1.38;;;1.00;;
63818;SDS011;49970;54.976;73.248;2023-04-24T10:13:09;8.98;;;1.02;;
63818;SDS011;49970;54.976;73.248;2023-04-24T10:15:37;5.00;;;1.02;;
63818;SDS011;49970;54.976;73.248;2023-04-24T10:18:04;7.78;;;1.35;;
63818;SDS011;49970;54.976;73.248;2023-04-24T10:20:32;10.07;;;1.05;;
63818;SDS011;49970;54.976;73.248;2023-04-24T10:22:59;15.00;;;1.58;;
63818;SDS011;49970;54.976;73.248;2023-04-24T10:25:30;24.02;;;1.40;;
63818;SDS011;49970;54.976;73.248;2023-04-24T10:27:57;15.10;;;1.00;;
63818;SDS011;49970;54.976;73.248;2023-04-24T10:30:26;33.70;;;1.52;;
63818;SDS011;49970;54.976;73.248;2023-04-24T10:33:03;32.58;;;1.25;;
63818;SDS011;49970;54.976;73.248;2023-04-24T10:35:41;31.13;;;1.30;;
63818;SDS011;49970;54.976;73.248;2023-04-24T10:38:13;6.45;;;1.00;;
63818;SDS011;49970;54.976;73.248;2023-04-24T10:42:13;19.73;;;1.25;;
63818;SDS011;49970;54.976;73.248;2023-04-24T10:46:01;1.98;;;1.20;;
63818;SDS011;49970;54.976;73.248;2023-04-24T10:49:51;15.73;;;0.98;;
63818;SDS011;49970;54.976;73.248;2023-04-24T10:53:43;5.10;;;0.90;;
63818;SDS011;49970;54.976;73.248;2023-04-24T10:57:34;11.43;;;1.60;;
63818;SDS011;49970;54.976;73.248;2023-04-24T11:05:02;8.57;;;1.52;;
63818;SDS011;49970;54.976;73.248;2023-04-24T11:09:16;4.45;;;1.45;;
63818;SDS011;49970;54.976;73.248;2023-04-24T11:13:07;6.75;;;1.13;;
63818;SDS011;49970;54.976;73.248;2023-04-24T11:16:58;3.35;;;1.20;;
63818;SDS011;49970;54.976;73.248;2023-04-24T11:20:52;27.10;;;2.38;;
63818;SDS011;49970;54.976;73.248;2023-04-24T11:28:03;5.93;;;1.58;;
63818;SDS011;49970;54.976;73.248;2023-04-24T11:31:54;10.50;;;2.10;;
63818;SDS011;49970;54.976;73.248;2023-04-24T11:35:43;12.38;;;1.90;;
63818;SDS011;49970;54.976;73.248;2023-04-24T11:39:36;13.05;;;2.20;;
63818;SDS011;49970;54.976;73.248;2023-04-24T11:47:19;6.63;;;1.67;;
63818;SDS011;49970;54.976;73.248;2023-04-24T11:51:11;17.15;;;1.95;;
63818;SDS011;49970;54.976;73.248;2023-04-24T11:55:01;7.05;;;1.55;;
63818;SDS011;49970;54.976;73.248;2023-04-24T11:58:51;26.17;;;2.78;;
63818;SDS011;49970;54.976;73.248;2023-04-24T12:11:00;38.40;;;3.22;;
63818;SDS011;49970;54.976;73.248;2023-04-24T12:14:58;15.02;;;3.40;;
63818;SDS011;49970;54.976;73.248;2023-04-24T12:18:50;19.33;;;3.30;;
63818;SDS011;49970;54.976;73.248;2023-04-24T12:22:49;10.43;;;6.65;;
63818;SDS011;49970;54.976;73.248;2023-04-24T12:31:00;43.20;;;7.38;;
63818;SDS011;49970;54.976;73.248;2023-04-24T12:34:52;16.67;;;5.50;;
63818;SDS011;49970;54.976;73.248;2023-04-24T12:38:43;34.08;;;3.80;;
63818;SDS011;49970;54.976;73.248;2023-04-24T12:42:33;3.47;;;1.33;;
63818;SDS011;49970;54.976;73.248;2023-04-24T12:46:22;17.55;;;1.05;;
63818;SDS011;49970;54.976;73.248;2023-04-24T13:15:50;7.18;;;2.00;;
63818;SDS011;49970;54.976;73.248;2023-04-24T13:18:16;9.02;;;1.58;;
63818;SDS011;49970;54.976;73.248;2023-04-24T13:20:47;5.07;;;1.17;;
63818;SDS011;49970;54.976;73.248;2023-04-24T13:23:14;6.72;;;1.10;;
63818;SDS011;49970;54.976;73.248;2023-04-24T13:25:41;15.50;;;1.35;;
63818;SDS011;49970;54.976;73.248;2023-04-24T13:28:07;13.43;;;1.40;;
63818;SDS011;49970;54.976;73.248;2023-04-24T13:30:44;8.45;;;1.60;;
63818;SDS011;49970;54.976;73.248;2023-04-24T13:33:10;6.28;;;1.40;;
63818;SDS011;49970;54.976;73.248;2023-04-24T13:35:36;11.48;;;1.42;;
63818;SDS011;49970;54.976;73.248;2023-04-24T13:38:03;14.80;;;1.33;;
63818;SDS011;49970;54.976;73.248;2023-04-24T13:40:41;4.18;;;1.42;;
63818;SDS011;49970;54.976;73.248;2023-04-24T13:43:07;3.13;;;1.17;;
63818;SDS011;49970;54.976;73.248;2023-04-24T13:45:34;8.98;;;1.50;;
63818;SDS011;49970;54.976;73.248;2023-04-24T13:48:01;4.00;;;1.63;;
63818;SDS011;49970;54.976;73.248;2023-04-24T13:50:28;4.47;;;2.03;;
63818;SDS011;49970;54.976;73.248;2023-04-24T13:52:55;4.22;;;2.50;;
63818;SDS011;49970;54.976;73.248;2023-04-24T13:55:22;7.97;;;2.83;;
63818;SDS011;49970;54.976;73.248;2023-04-24T13:57:48;2.05;;;1.85;;
63818;SDS011;49970;54.976;73.248;2023-04-24T14:00:15;25.13;;;1.85;;
63818;SDS011;49970;54.976;73.248;2023-04-24T14:02:42;7.10;;;1.42;;
63818;SDS011;49970;54.976;73.248;2023-04-24T14:05:08;11.02;;;1.40;;
63818;SDS011;49970;54.976;73.248;2023-04-24T14:07:37;4.03;;;1.10;;
63818;SDS011;49970;54.976;73.248;2023-04-24T14:10:08;3.58;;;1.40;;
63818;SDS011;49970;54.976;73.248;2023-04-24T14:12:35;2.35;;;1.60;;
63818;SDS011;49970;54.976;73.248;2023-04-24T14:15:01;8.13;;;1.90;;
63818;SDS011;49970;54.976;73.248;2023-04-24T14:17:28;6.55;;;1.70;;
63818;SDS011;49970;54.976;73.248;2023-04-24T14:19:54;3.67;;;1.70;;
63818;SDS011;49970;54.976;73.248;2023-04-24T14:22:22;6.80;;;1.80;;
63818;SDS011;49970;54.976;73.248;2023-04-24T14:24:54;12.02;;;1.75;;
63818;SDS011;49970;54.976;73.248;2023-04-24T14:27:20;10.70;;;1.90;;
63818;SDS011;49970;54.976;73.248;2023-04-24T14:29:46;12.30;;;1.70;;
63818;SDS011;49970;54.976;73.248;2023-04-24T14:32:12;8.48;;;1.73;;
63818;SDS011;49970;54.976;73.248;2023-04-24T14:34:40;14.73;;;2.25;;
63818;SDS011;49970;54.976;73.248;2023-04-24T14:37:07;11.98;;;2.53;;
63818;SDS011;49970;54.976;73.248;2023-04-24T14:39:44;20.45;;;3.58;;
63818;SDS011;49970;54.976;73.248;2023-04-24T14:42:11;8.45;;;2.15;;
63818;SDS011;49970;54.976;73.248;2023-04-24T14:44:37;12.43;;;3.72;;
63818;SDS011;49970;54.976;73.248;2023-04-24T14:47:03;13.55;;;2.15;;
63818;SDS011;49970;54.976;73.248;2023-04-24T14:49:29;8.18;;;1.80;;
63818;SDS011;49970;54.976;73.248;2023-04-24T14:51:56;5.00;;;1.58;;
63818;SDS011;49970;54.976;73.248;2023-04-24T14:54:22;4.35;;;1.20;;
63818;SDS011;49970;54.976;73.248;2023-04-24T14:56:54;10.15;;;1.50;;
63818;SDS011;49970;54.976;73.248;2023-04-24T15:01:54;9.18;;;1.55;;
63818;SDS011;49970;54.976;73.248;2023-04-24T15:04:23;13.27;;;1.50;;
63818;SDS011;49970;54.976;73.248;2023-04-24T15:06:53;14.55;;;2.10;;
63818;SDS011;49970;54.976;73.248;2023-04-24T15:09:22;10.73;;;1.67;;
63818;SDS011;49970;54.976;73.248;2023-04-24T15:12:00;3.63;;;1.20;;
63818;SDS011;49970;54.976;73.248;2023-04-24T15:14:27;5.70;;;1.60;;
63818;SDS011;49970;54.976;73.248;2023-04-24T15:16:59;3.92;;;1.00;;
63818;SDS011;49970;54.976;73.248;2023-04-24T15:19:25;2.35;;;1.70;;
63818;SDS011;49970;54.976;73.248;2023-04-24T15:22:01;7.47;;;2.00;;
63818;SDS011;49970;54.976;73.248;2023-04-24T15:24:45;5.13;;;2.45;;
63818;SDS011;49970;54.976;73.248;2023-04-24T15:27:12;2.75;;;2.25;;
63818;SDS011;49970;54.976;73.248;2023-04-24T15:29:38;10.27;;;2.60;;
63818;SDS011;49970;54.976;73.248;2023-04-24T15:32:09;7.68;;;2.50;;
63818;SDS011;49970;54.976;73.248;2023-04-24T15:34:35;5.88;;;2.80;;
63818;SDS011;49970;54.976;73.248;2023-04-24T15:37:02;5.25;;;2.10;;
63818;SDS011;49970;54.976;73.248;2023-04-24T15:39:28;14.45;;;3.00;;
63818;SDS011;49970;54.976;73.248;2023-04-24T15:41:54;3.20;;;1.88;;
63818;SDS011;49970;54.976;73.248;2023-04-24T15:44:21;5.32;;;2.20;;
63818;SDS011;49970;54.976;73.248;2023-04-24T15:46:48;4.72;;;2.10;;
63818;SDS011;49970;54.976;73.248;2023-04-24T15:49:14;6.68;;;1.92;;
63818;SDS011;49970;54.976;73.248;2023-04-24T15:51:40;20.25;;;2.70;;
63818;SDS011;49970;54.976;73.248;2023-04-24T15:54:06;11.23;;;2.97;;
63818;SDS011;49970;54.976;73.248;2023-04-24T15:56:33;15.68;;;3.50;;
63818;SDS011;49970;54.976;73.248;2023-04-24T15:59:01;13.70;;;3.10;;
63818;SDS011;49970;54.976;73.248;2023-04-24T16:01:33;21.05;;;3.78;;
63818;SDS011;49970;54.976;73.248;2023-04-24T16:03:59;10.63;;;3.88;;
63818;SDS011;49970;54.976;73.248;2023-04-24T16:06:25;18.58;;;4.45;;
63818;SDS011;49970;54.976;73.248;2023-04-24T16:08:52;19.63;;;4.35;;
63818;SDS011;49970;54.976;73.248;2023-04-24T16:11:18;11.20;;;4.07;;
63818;SDS011;49970;54.976;73.248;2023-04-24T16:13:55;14.80;;;3.85;;
63818;SDS011;49970;54.976;73.248;2023-04-24T16:16:27;26.35;;;4.28;;
63818;SDS011;49970;54.976;73.248;2023-04-24T16:18:53;9.52;;;3.67;;
63818;SDS011;49970;54.976;73.248;2023-04-24T16:21:24;17.60;;;4.22;;
63818;SDS011;49970;54.976;73.248;2023-04-24T16:23:51;11.63;;;3.53;;
63818;SDS011;49970;54.976;73.248;2023-04-24T16:26:23;21.70;;;3.35;;
63818;SDS011;49970;54.976;73.248;2023-04-24T16:28:49;8.00;;;3.30;;
63818;SDS011;49970;54.976;73.248;2023-04-24T16:31:15;10.27;;;3.63;;
63818;SDS011;49970;54.976;73.248;2023-04-24T16:33:41;10.43;;;2.90;;
63818;SDS011;49970;54.976;73.248;2023-04-24T16:36:08;11.68;;;3.70;;